NOAA/GLERL Met Station at Muskegon, MI

Previous 3 Hours (2 minute increments)
See also Previous 5 Days (top of hour)
Jump down to Data
Switch to [English][Metric]
Zoom: Click and drag, Pan: shift-click and drag, Unzoom: double-click, Unzoom All






See also 1-day windrose plot


NOAA/GLERL Met Station at Muskegon, MI

Previous 3 Hours (2 minute increments)
See also Previous 5 Days (top of hour only)
Jump up to Graphs
Switch to [English][Metric]
                  Wind  Wind  Wind   Air   Dew   Rel     Sta   PAR
                   Spd   Gst   Dir  Temp    Pt   Hum    Pres uE/m2/
YYYY-MM-DD   EST   kts   kts   deg     F     F     %   in Hg   sec
2017-02-23 13:20  17.3  20.2   346  38.3  34.8  87.0   29.17   954
2017-02-23 13:18  16.5  18.7   347  38.3  34.7  86.6   29.17   964
2017-02-23 13:16  17.5  19.8   345  38.3  34.6  86.5   29.17  1028
2017-02-23 13:14  17.9  19.8   343  38.5  34.7  86.2   29.17  1140
2017-02-23 13:12  17.7  19.8   341  38.7  34.8  85.7   29.17  1284
2017-02-23 13:10  17.3  18.7   343  38.8  35.0  86.0   29.17  1776
2017-02-23 13:08  16.1  18.3   342  38.8  35.0  85.9   29.17  1964
2017-02-23 13:06  17.5  19.2   341  38.8  35.0  86.0   29.17  2168
2017-02-23 13:04  16.7  18.5   344  39.0  35.2  85.9   29.16  1928
2017-02-23 13:02  14.4  16.9   349  39.0  35.2  86.1   29.16  2010
2017-02-23 13:00  14.8  15.9   347  39.0  35.4  86.7   29.16  2167
2017-02-23 12:58  13.8  16.5   347  38.7  35.1  86.9   29.16  1967
2017-02-23 12:56  14.0  16.7   345  38.7  35.2  87.2   29.16  1834
2017-02-23 12:54  13.8  16.1   348  38.7  35.2  87.2   29.16  1319
2017-02-23 12:52  14.8  16.3   346  38.7  35.1  86.8   29.16  1315
2017-02-23 12:50  15.2  15.9   345  39.0  35.4  86.8   29.17  1435
2017-02-23 12:48  14.2  16.3   347  38.8  35.3  87.0   29.17  1942
2017-02-23 12:46  14.6  15.6   345  38.8  35.3  86.8   29.17  2051
2017-02-23 12:44  14.4  15.6   344  38.8  35.3  87.0   29.17  2069
2017-02-23 12:42  14.6  15.9   344  38.8  35.5  87.5   29.17  2087
2017-02-23 12:40  13.2  14.4   343  38.7  35.3  87.6   29.17  1731
2017-02-23 12:38  12.4  14.4   343  38.8  35.4  87.4   29.17  1871
2017-02-23 12:36  13.4  14.4   338  38.8  35.4  87.4   29.17  2224
2017-02-23 12:34  14.4  16.3   341  39.0  35.7  87.6   29.17  1729
2017-02-23 12:32  14.2  15.6   343  38.8  35.5  87.7   29.17  2071
2017-02-23 12:30  12.6  14.0   341  38.8  35.5  87.7   29.17  2028
2017-02-23 12:28  12.1  13.2   343  39.0  35.7  87.6   29.17  2010
2017-02-23 12:26  11.7  12.8   344  39.0  35.8  87.9   29.17  2016
2017-02-23 12:24  10.7  12.4   345  39.0  35.8  88.2   29.17  2018
2017-02-23 12:22  11.7  12.4   346  38.8  35.7  88.3   29.17  1997
2017-02-23 12:20  11.9  12.8   347  38.8  35.8  88.6   29.17  2001
2017-02-23 12:18  12.4  13.4   345  38.8  35.9  89.2   29.17  2014
2017-02-23 12:16  10.9  12.8   346  38.7  35.9  89.6   29.17  2004
2017-02-23 12:14  11.1  13.8   351  38.7  36.0  90.2   29.17  1506
2017-02-23 12:12  11.3  12.2   349  38.5  36.0  90.6   29.17  1329
2017-02-23 12:10  10.9  12.6   349  38.3  35.9  90.9   29.18  1602
2017-02-23 12:08  11.7  12.8   344  38.1  35.9  91.5   29.18  1693
2017-02-23 12:06  11.1  12.2   341  37.9  35.7  91.7   29.18  1408
2017-02-23 12:04  11.7  12.2   338  37.9  35.8  91.8   29.18  1206
2017-02-23 12:02  11.9  12.8   336  38.1  36.0  92.1   29.18  1351
2017-02-23 12:00  12.4  13.0   334  37.8  35.9  92.8   29.18  2129
2017-02-23 11:58  13.2  13.6   331  37.4  35.6  93.1   29.18  1281
2017-02-23 11:56  12.8  13.4   324  37.2  35.4  93.1   29.18   829
2017-02-23 11:54  12.8  13.6   317  37.2  35.4  93.0   29.19   695
2017-02-23 11:52  11.5  12.2   315  37.2  35.4  92.9   29.19   669
2017-02-23 11:50   8.9  10.9   318  37.6  35.7  92.9   29.18   742
2017-02-23 11:48   7.2   8.6   327  37.9  36.1  92.9   29.17   869
2017-02-23 11:46   7.0   8.6   330  38.1  36.3  93.1   29.17  1019
2017-02-23 11:44   5.6   8.0   334  37.9  36.1  93.0   29.17  1324
2017-02-23 11:42   5.4   6.2   323  37.9  36.0  92.8   29.17  1530
2017-02-23 11:40   5.8   6.2   317  37.9  36.0  92.8   29.17  1478
2017-02-23 11:38   5.4   6.0   314  38.1  36.3  93.1   29.17  1252
2017-02-23 11:36   4.5   5.2   323  37.9  36.1  93.1   29.16  1134
2017-02-23 11:34   4.1   5.1   325  38.1  36.4  93.3   29.16  1207
2017-02-23 11:32   4.7   5.6   337  38.1  36.4  93.4   29.16  1209
2017-02-23 11:30   4.9   5.6   330  37.9  36.3  93.7   29.16  2075
2017-02-23 11:28   6.2   7.4   328  37.8  36.1  93.7   29.17  1300
2017-02-23 11:26   7.4   8.6   331  37.8  36.2  93.9   29.17   978
2017-02-23 11:24   8.6   9.1   330  37.6  36.0  93.9   29.17  1160
2017-02-23 11:22   8.4   8.9   331  37.6  36.0  93.8   29.17  1333
2017-02-23 11:20   8.4   8.7   324  37.6  35.9  93.7   29.17  1433
2017-02-23 11:18   7.6   8.4   319  37.6  35.9  93.6   29.17  1403
2017-02-23 11:16   8.7   9.3   315  37.8  36.2  93.9   29.18  1476
2017-02-23 11:14   8.0   8.6   324  37.8  36.2  93.9   29.18   899
2017-02-23 11:12   8.0   8.6   325  37.8  36.1  93.8   29.17   860
2017-02-23 11:10   8.2   8.9   325  37.9  36.3  93.9   29.17   832
2017-02-23 11:08   8.4   9.1   330  37.9  36.4  94.1   29.17   784
2017-02-23 11:06   8.6   9.1   327  37.9  36.3  93.6   29.17   890
2017-02-23 11:04   8.7   9.1   329  38.3  36.6  93.6   29.17   745
2017-02-23 11:02   7.8   8.6   326  38.7  37.0  93.6   29.17   667
2017-02-23 11:00   7.2   8.0   321  38.8  37.1  93.2   29.17   678
2017-02-23 10:58   5.4   6.2   315  39.4  37.6  93.1   29.17   713
2017-02-23 10:56   3.9   4.9   328  39.7  37.8  92.6   29.17   625
2017-02-23 10:54   5.1   5.6   324  40.6  38.5  92.0   29.17   636
2017-02-23 10:52   3.5   4.9   330  41.7  39.5  91.8   29.17   697
2017-02-23 10:50   3.3   4.5     9  42.4  40.6  93.0   29.16   691
2017-02-23 10:48   4.7   5.6    35  42.4  40.7  93.3   29.16   726
2017-02-23 10:46   4.3   6.2    22  42.6  41.0  93.8   29.16   921
2017-02-23 10:44   5.1   7.0    41  42.6  41.1  94.3   29.16   959
2017-02-23 10:42   4.7   5.8    35  42.4  41.0  94.7   29.16  1099
2017-02-23 10:40   4.7   6.0    45  42.1  40.9  95.6   29.16  1380
2017-02-23 10:38   5.2   6.0    25  41.7  40.7  96.1   29.16  1322
2017-02-23 10:36   5.1   6.2    29  41.2  40.2  96.4   29.16  1527
2017-02-23 10:34   5.2   7.6    50  41.2  40.4  96.9   29.16   894
2017-02-23 10:32   4.7   6.4    29  40.8  40.1  97.2   29.16  1083
2017-02-23 10:30   5.4   6.8    42  40.6  40.0  97.4   29.16   869
2017-02-23 10:28   6.2   7.6    41  40.5  39.8  97.6   29.16   724
2017-02-23 10:26   6.4   8.2    37  40.3  39.7  97.8   29.15   758
2017-02-23 10:24   7.0   9.7    39  40.1  39.6  98.0   29.15   848
2017-02-23 10:22   7.4   8.6    43  39.9  39.4  98.1   29.15   631
2017-02-23 10:20   6.8   9.1    44  39.7  39.3  98.2   29.15   540